createdAt,value
2018-12-30T00:01:48.404Z,2.00
2018-12-30T00:04:18.735Z,2.10
2018-12-30T00:06:48.895Z,2.10
2018-12-30T00:09:18.362Z,2.10
2018-12-30T00:11:49.044Z,2.10
2018-12-30T00:14:20.560Z,2.10
2018-12-30T00:16:50.264Z,2.10
2018-12-30T00:19:19.268Z,2.10
2018-12-30T00:21:48.708Z,2.10
2018-12-30T00:24:18.286Z,2.10
2018-12-30T00:26:48.593Z,2.10
2018-12-30T00:29:17.651Z,2.20
2018-12-30T00:31:51.491Z,2.10
2018-12-30T00:34:20.915Z,2.20
2018-12-30T00:36:52.284Z,2.20
2018-12-30T00:39:23.094Z,2.20
2018-12-30T00:41:52.692Z,2.20
2018-12-30T00:44:21.864Z,2.30
2018-12-30T00:46:52.201Z,2.30
2018-12-30T00:49:21.423Z,2.30
2018-12-30T00:51:54.520Z,2.20
2018-12-30T00:54:25.321Z,2.30
2018-12-30T00:56:54.963Z,2.30
2018-12-30T00:59:24.628Z,2.20
2018-12-30T01:01:54.079Z,2.30
2018-12-30T01:04:23.524Z,2.30
2018-12-30T01:06:55.826Z,2.30
2018-12-30T01:09:25.464Z,2.30
2018-12-30T01:11:56.071Z,2.30
2018-12-30T01:14:25.130Z,2.30
2018-12-30T01:16:54.724Z,2.30
2018-12-30T01:19:24.992Z,2.30
2018-12-30T01:21:54.447Z,2.30
2018-12-30T01:24:23.816Z,2.30
2018-12-30T01:26:53.430Z,2.30
2018-12-30T01:29:24.094Z,2.30
2018-12-30T01:31:53.765Z,2.40
2018-12-30T01:34:23.972Z,2.30
2018-12-30T01:36:53.564Z,2.30
2018-12-30T01:39:24.803Z,2.30
2018-12-30T01:41:53.813Z,2.30
2018-12-30T01:44:23.381Z,2.30
2018-12-30T01:46:55.429Z,2.40
2018-12-30T01:49:24.656Z,2.40
2018-12-30T01:51:54.329Z,2.40
2018-12-30T01:54:25.023Z,2.30
2018-12-30T01:56:54.994Z,2.40
2018-12-30T01:59:24.357Z,2.40
2018-12-30T02:01:53.894Z,2.30
2018-12-30T02:04:25.355Z,2.30
2018-12-30T02:06:55.086Z,2.30
2018-12-30T02:09:24.606Z,2.30
2018-12-30T02:11:53.923Z,2.30
2018-12-30T02:14:23.507Z,2.20
2018-12-30T02:16:54.230Z,2.20
2018-12-30T02:19:23.259Z,2.20
2018-12-30T02:21:52.703Z,2.20
2018-12-30T02:24:21.892Z,2.20
2018-12-30T02:29:27.379Z,2.30
2018-12-30T02:31:56.740Z,2.20
2018-12-30T02:34:25.815Z,2.20
2018-12-30T02:36:57.884Z,2.20
2018-12-30T02:39:27.572Z,2.20
2018-12-30T02:41:57.049Z,2.20
2018-12-30T02:44:26.059Z,2.20
2018-12-30T02:46:55.430Z,2.20
2018-12-30T02:49:25.057Z,2.20
2018-12-30T02:51:54.155Z,2.20
2018-12-30T02:54:23.451Z,2.20
2018-12-30T02:56:52.706Z,2.20
2018-12-30T02:59:21.691Z,2.20
2018-12-30T03:01:51.011Z,2.20
2018-12-30T03:04:20.313Z,2.10
2018-12-30T03:06:49.732Z,2.10
2018-12-30T03:09:18.877Z,2.10
2018-12-30T03:11:48.067Z,2.10
2018-12-30T03:14:17.522Z,2.10
2018-12-30T03:16:46.608Z,2.10
2018-12-30T03:19:16.015Z,2.10
2018-12-30T03:21:45.163Z,2.10
2018-12-30T03:24:14.822Z,2.10
2018-12-30T03:26:44.159Z,2.10
2018-12-30T03:29:13.195Z,2.10
2018-12-30T03:31:42.770Z,2.10
2018-12-30T03:34:12.233Z,2.10
2018-12-30T03:36:41.883Z,2.10
2018-12-30T03:39:11.154Z,2.10
2018-12-30T03:41:40.283Z,2.10
2018-12-30T03:44:09.513Z,2.10
2018-12-30T03:46:39.336Z,2.10
2018-12-30T03:49:08.548Z,2.10
2018-12-30T03:51:37.828Z,2.10
2018-12-30T03:54:07.340Z,2.20
2018-12-30T03:56:36.697Z,2.20
2018-12-30T03:59:06.196Z,2.20
2018-12-30T04:01:35.573Z,2.20
2018-12-30T04:04:04.663Z,2.20
2018-12-30T04:06:34.066Z,2.20
2018-12-30T04:09:04.641Z,2.30
2018-12-30T04:11:34.000Z,2.30
2018-12-30T04:14:03.391Z,2.30
2018-12-30T04:16:32.560Z,2.30
2018-12-30T04:19:01.962Z,2.30
2018-12-30T04:21:31.043Z,2.30
2018-12-30T04:24:00.033Z,2.40
2018-12-30T04:26:29.137Z,2.40
2018-12-30T04:28:58.207Z,2.40
2018-12-30T04:31:27.507Z,2.40
2018-12-30T04:33:56.983Z,2.40
2018-12-30T04:36:25.917Z,2.40
2018-12-30T04:38:54.961Z,2.50
2018-12-30T04:41:24.109Z,2.40
2018-12-30T04:43:53.365Z,2.50
2018-12-30T04:46:22.460Z,2.50
2018-12-30T04:48:52.008Z,2.50
2018-12-30T04:51:21.784Z,2.40
2018-12-30T04:53:50.891Z,2.40
2018-12-30T04:56:19.904Z,2.50
2018-12-30T04:58:49.710Z,2.50
2018-12-30T05:01:18.783Z,2.50
2018-12-30T05:03:48.000Z,2.50
2018-12-30T05:06:18.017Z,2.50
2018-12-30T05:08:47.258Z,2.50
2018-12-30T05:11:16.601Z,2.50
2018-12-30T05:13:46.379Z,2.50
2018-12-30T05:16:15.638Z,2.50
2018-12-30T05:18:44.823Z,2.50
2018-12-30T05:21:14.401Z,2.60
2018-12-30T05:23:43.667Z,2.50
2018-12-30T05:26:12.616Z,2.50
2018-12-30T05:28:42.010Z,2.60
2018-12-30T05:31:11.859Z,2.60
2018-12-30T05:33:40.782Z,2.60
2018-12-30T05:36:09.699Z,2.60
2018-12-30T05:38:40.500Z,2.60
2018-12-30T05:41:09.879Z,2.60
2018-12-30T05:43:39.155Z,2.60
2018-12-30T05:46:08.067Z,2.60
2018-12-30T05:48:37.898Z,2.60
2018-12-30T05:51:07.155Z,2.60
2018-12-30T05:53:37.020Z,2.60
2018-12-30T05:56:06.097Z,2.60
2018-12-30T05:58:35.420Z,2.60
2018-12-30T06:01:04.933Z,2.60
2018-12-30T06:03:33.943Z,2.60
2018-12-30T06:06:03.372Z,2.60
2018-12-30T06:08:33.499Z,2.60
2018-12-30T06:11:02.436Z,2.60
2018-12-30T06:13:31.520Z,2.60
2018-12-30T06:16:00.637Z,2.60
2018-12-30T06:18:32.188Z,2.60
2018-12-30T06:21:01.220Z,2.60
2018-12-30T06:23:30.719Z,2.60
2018-12-30T06:26:00.375Z,2.60
2018-12-30T06:28:29.715Z,2.60
2018-12-30T06:30:58.856Z,2.60
2018-12-30T06:33:28.420Z,2.60
2018-12-30T06:35:57.319Z,2.60
2018-12-30T06:38:28.595Z,2.60
2018-12-30T06:40:58.295Z,2.60
2018-12-30T06:43:27.545Z,2.60
2018-12-30T06:45:56.820Z,2.60
2018-12-30T06:48:27.863Z,2.60
2018-12-30T06:50:57.452Z,2.60
2018-12-30T06:53:27.916Z,2.50
2018-12-30T06:55:56.844Z,2.60
2018-12-30T06:58:26.367Z,2.50
2018-12-30T07:00:55.391Z,2.50
2018-12-30T07:03:24.780Z,2.50
2018-12-30T07:05:54.111Z,2.50
2018-12-30T07:08:23.375Z,2.60
2018-12-30T07:10:52.867Z,2.60
2018-12-30T07:13:22.260Z,2.50
2018-12-30T07:15:51.224Z,2.50
2018-12-30T07:18:20.075Z,2.60
2018-12-30T07:20:50.392Z,2.50
2018-12-30T07:23:19.671Z,2.50
2018-12-30T07:25:49.024Z,2.50
2018-12-30T07:28:17.966Z,2.60
2018-12-30T07:30:47.075Z,2.60
2018-12-30T07:33:16.105Z,2.50
2018-12-30T07:35:45.055Z,2.60
2018-12-30T07:38:14.036Z,2.60
2018-12-30T07:40:43.159Z,2.60
2018-12-30T07:43:12.084Z,2.60
2018-12-30T07:45:41.203Z,2.60
2018-12-30T07:48:10.077Z,2.70
2018-12-30T07:50:39.087Z,2.70
2018-12-30T07:53:13.673Z,2.70
2018-12-30T07:55:38.785Z,2.90
2018-12-30T07:58:07.939Z,2.90
2018-12-30T08:00:36.976Z,2.80
2018-12-30T08:03:05.952Z,2.80
2018-12-30T08:05:35.693Z,2.80
2018-12-30T08:08:04.809Z,2.80
2018-12-30T08:10:33.763Z,2.80
2018-12-30T08:13:02.832Z,2.80
2018-12-30T08:15:31.892Z,2.80
2018-12-30T08:18:00.881Z,2.80
2018-12-30T08:20:29.736Z,2.80
2018-12-30T08:22:58.716Z,2.80
2018-12-30T08:25:27.872Z,2.90
2018-12-30T08:27:56.958Z,2.90
2018-12-30T08:30:26.071Z,2.90
2018-12-30T08:32:54.984Z,2.90
2018-12-30T08:35:24.101Z,2.90
2018-12-30T08:37:53.204Z,2.90
2018-12-30T08:40:22.383Z,2.90
2018-12-30T08:42:51.380Z,3.00
2018-12-30T08:45:20.379Z,3.00
2018-12-30T08:47:49.256Z,3.00
2018-12-30T08:50:18.453Z,3.10
2018-12-30T08:52:47.636Z,3.10
2018-12-30T08:55:16.504Z,3.10
2018-12-30T08:57:45.496Z,3.10
2018-12-30T09:00:14.499Z,3.10
2018-12-30T09:02:43.459Z,3.20
2018-12-30T09:05:12.440Z,3.20
2018-12-30T09:07:41.428Z,3.20
2018-12-30T09:10:10.556Z,3.30
2018-12-30T09:12:39.451Z,3.40
2018-12-30T09:15:08.520Z,3.50
2018-12-30T09:17:37.596Z,3.50
2018-12-30T09:20:06.813Z,3.70
2018-12-30T09:22:35.693Z,3.80
2018-12-30T09:25:05.080Z,3.80
2018-12-30T09:27:34.029Z,3.80
2018-12-30T09:30:03.093Z,3.80
2018-12-30T09:32:32.152Z,3.80
2018-12-30T09:35:01.272Z,3.80
2018-12-30T09:37:30.264Z,3.80
2018-12-30T09:39:59.401Z,3.80
2018-12-30T09:42:28.636Z,3.90
2018-12-30T09:44:57.902Z,3.90
2018-12-30T09:47:27.028Z,4.00
2018-12-30T09:49:56.051Z,4.00
2018-12-30T09:52:25.428Z,4.00
2018-12-30T09:54:54.529Z,4.00
2018-12-30T09:57:23.671Z,4.00
2018-12-30T09:59:52.810Z,4.00
2018-12-30T10:02:21.843Z,4.10
2018-12-30T10:04:50.955Z,4.10
2018-12-30T10:07:20.221Z,4.10
2018-12-30T10:09:49.455Z,4.10
2018-12-30T10:12:18.457Z,4.10
2018-12-30T10:14:48.647Z,4.20
2018-12-30T10:17:19.392Z,4.20
2018-12-30T10:19:48.496Z,4.20
2018-12-30T10:22:17.375Z,4.10
2018-12-30T10:24:46.424Z,4.10
2018-12-30T10:27:15.329Z,4.10
2018-12-30T10:29:44.257Z,4.10
2018-12-30T10:32:13.468Z,4.10
2018-12-30T10:34:42.373Z,4.10
2018-12-30T10:37:11.383Z,4.20
2018-12-30T10:39:40.446Z,4.30
2018-12-30T10:42:09.624Z,4.30
2018-12-30T10:44:38.879Z,4.30
2018-12-30T10:47:08.193Z,4.30
2018-12-30T10:49:37.305Z,4.30
2018-12-30T10:52:06.205Z,4.40
2018-12-30T10:54:35.391Z,4.50
2018-12-30T10:57:04.551Z,4.60
2018-12-30T10:59:33.435Z,4.60
2018-12-30T11:02:03.192Z,4.60
2018-12-30T11:04:32.130Z,4.60
2018-12-30T11:07:01.330Z,4.60
2018-12-30T11:09:30.353Z,4.70
2018-12-30T11:11:59.304Z,4.70
2018-12-30T11:14:28.239Z,4.60
2018-12-30T11:16:57.781Z,4.70
2018-12-30T11:19:26.770Z,4.60
2018-12-30T11:21:56.004Z,4.70
2018-12-30T11:24:25.057Z,4.70
2018-12-30T11:26:54.069Z,4.70
2018-12-30T11:29:23.069Z,4.70
2018-12-30T11:31:52.656Z,4.70
2018-12-30T11:34:21.655Z,4.70
2018-12-30T11:36:50.815Z,4.60
2018-12-30T11:39:19.941Z,4.60
2018-12-30T11:41:48.840Z,4.50
2018-12-30T11:44:17.808Z,4.50
2018-12-30T11:46:46.815Z,4.50
2018-12-30T11:49:15.812Z,4.40
2018-12-30T11:51:45.753Z,4.40
2018-12-30T11:54:16.706Z,4.40
2018-12-30T11:56:45.320Z,4.40
2018-12-30T11:59:14.484Z,4.40
2018-12-30T12:01:43.535Z,4.40
2018-12-30T12:04:12.375Z,4.50
2018-12-30T12:06:41.760Z,4.50
2018-12-30T12:09:10.816Z,4.60
2018-12-30T12:11:39.699Z,4.60
2018-12-30T12:14:08.835Z,4.60
2018-12-30T12:16:38.066Z,4.60
2018-12-30T12:19:06.916Z,4.70
2018-12-30T12:21:36.354Z,4.70
2018-12-30T12:24:05.399Z,4.70
2018-12-30T12:26:34.330Z,4.80
2018-12-30T12:29:04.778Z,4.90
2018-12-30T12:31:33.956Z,4.90
2018-12-30T12:34:02.951Z,5.00
2018-12-30T12:36:31.939Z,5.00
2018-12-30T12:39:00.863Z,5.10
2018-12-30T12:41:29.837Z,5.00
2018-12-30T12:43:58.800Z,5.00
2018-12-30T12:46:27.975Z,5.00
2018-12-30T12:48:57.158Z,5.10
2018-12-30T12:51:26.163Z,5.00
2018-12-30T12:53:55.292Z,4.90
2018-12-30T12:56:24.409Z,4.90
2018-12-30T12:58:53.755Z,5.00
2018-12-30T13:01:22.588Z,4.90
2018-12-30T13:03:51.574Z,4.90
2018-12-30T13:06:21.774Z,4.80
2018-12-30T13:08:50.887Z,4.80
2018-12-30T13:11:20.032Z,4.80
2018-12-30T13:13:49.121Z,4.90
2018-12-30T13:16:18.100Z,4.70
2018-12-30T13:18:47.222Z,4.70
2018-12-30T13:21:16.270Z,4.70
2018-12-30T13:23:45.475Z,4.60
2018-12-30T13:26:14.572Z,4.60
2018-12-30T13:28:44.514Z,4.60
2018-12-30T13:31:13.529Z,4.60
2018-12-30T13:33:42.714Z,4.60
2018-12-30T13:36:12.883Z,4.60
2018-12-30T13:38:42.188Z,4.60
2018-12-30T13:41:11.263Z,4.60
2018-12-30T13:43:40.329Z,4.60
2018-12-30T13:46:09.444Z,4.60
2018-12-30T13:48:38.388Z,4.50
2018-12-30T13:51:07.448Z,4.60
2018-12-30T13:53:36.492Z,4.70
2018-12-30T13:56:06.351Z,4.60
2018-12-30T13:58:35.344Z,4.60
2018-12-30T14:01:04.319Z,4.60
2018-12-30T14:03:33.575Z,4.60
2018-12-30T14:06:02.768Z,4.50
2018-12-30T14:08:31.836Z,4.60
2018-12-30T14:11:00.873Z,4.50
2018-12-30T14:13:30.025Z,4.60
2018-12-30T14:15:59.036Z,4.60
2018-12-30T14:18:28.180Z,4.60
2018-12-30T14:20:57.307Z,4.60
2018-12-30T14:23:26.157Z,4.60
2018-12-30T14:25:55.142Z,4.50
2018-12-30T14:28:24.140Z,4.50
2018-12-30T14:30:53.154Z,4.50
2018-12-30T14:33:22.129Z,4.50
2018-12-30T14:35:51.180Z,4.50
2018-12-30T14:38:20.446Z,4.50
2018-12-30T14:40:49.580Z,4.50
2018-12-30T14:43:18.671Z,4.50
2018-12-30T14:45:47.799Z,4.60
2018-12-30T14:48:16.904Z,4.60
2018-12-30T14:50:45.837Z,4.60
2018-12-30T14:53:19.304Z,4.60
2018-12-30T14:55:45.635Z,4.50
2018-12-30T14:58:14.920Z,4.50
2018-12-30T15:00:43.907Z,4.50
2018-12-30T15:03:13.056Z,4.40
2018-12-30T15:05:42.363Z,4.40
2018-12-30T15:08:11.469Z,4.40
2018-12-30T15:10:40.416Z,4.40
2018-12-30T15:13:09.336Z,4.30
2018-12-30T15:15:38.279Z,4.30
2018-12-30T15:18:07.511Z,4.30
2018-12-30T15:20:36.960Z,4.20
2018-12-30T15:23:05.854Z,4.20
2018-12-30T15:25:34.857Z,4.20
2018-12-30T15:28:03.763Z,4.20
2018-12-30T15:30:32.887Z,4.10
2018-12-30T15:33:01.813Z,4.10
2018-12-30T15:35:30.800Z,4.10
2018-12-30T15:38:00.839Z,4.00
2018-12-30T15:40:30.258Z,4.00
2018-12-30T15:42:59.112Z,4.00
2018-12-30T15:45:28.251Z,4.00
2018-12-30T15:47:57.375Z,4.00
2018-12-30T15:50:26.403Z,3.90
2018-12-30T15:52:55.504Z,3.90
2018-12-30T15:55:24.838Z,3.80
2018-12-30T15:57:54.356Z,3.80
2018-12-30T16:00:23.453Z,3.80
2018-12-30T16:02:52.505Z,3.80
2018-12-30T16:05:22.287Z,3.70
2018-12-30T16:07:52.911Z,3.70
2018-12-30T16:10:22.864Z,3.60
2018-12-30T16:12:56.043Z,3.60
2018-12-30T16:15:25.190Z,3.60
2018-12-30T16:17:54.395Z,3.60
2018-12-30T16:20:23.651Z,3.60
2018-12-30T16:22:53.882Z,3.60
2018-12-30T16:25:27.115Z,3.70
2018-12-30T16:27:56.232Z,3.70
2018-12-30T16:30:25.344Z,3.60
2018-12-30T16:32:54.759Z,3.60
2018-12-30T16:35:24.060Z,3.50
2018-12-30T16:37:53.677Z,3.50
2018-12-30T16:40:23.049Z,3.50
2018-12-30T16:42:53.299Z,3.60
2018-12-30T16:45:22.252Z,3.60
2018-12-30T16:47:51.315Z,3.60
2018-12-30T16:50:20.632Z,3.60
2018-12-30T16:52:49.670Z,3.60
2018-12-30T16:55:18.766Z,3.60
2018-12-30T16:57:48.127Z,3.50
2018-12-30T17:00:19.239Z,3.40
2018-12-30T17:02:48.335Z,3.30
2018-12-30T17:05:19.388Z,3.30
2018-12-30T17:07:48.807Z,3.30
2018-12-30T17:10:17.965Z,3.20
2018-12-30T17:12:47.159Z,3.30
2018-12-30T17:15:16.527Z,3.40
2018-12-30T17:17:45.667Z,3.50
2018-12-30T17:20:14.767Z,3.60
2018-12-30T17:22:44.155Z,3.70
2018-12-30T17:25:13.148Z,3.60
2018-12-30T17:27:42.298Z,3.70
2018-12-30T17:30:11.605Z,3.70
2018-12-30T17:32:40.988Z,3.70
2018-12-30T17:35:10.172Z,3.70
2018-12-30T17:37:40.145Z,3.60
2018-12-30T17:40:09.313Z,3.50
2018-12-30T17:42:38.612Z,3.50
2018-12-30T17:45:07.834Z,3.40
2018-12-30T17:47:36.763Z,3.40
2018-12-30T17:50:07.922Z,3.50
2018-12-30T17:52:37.322Z,3.50
2018-12-30T17:55:06.571Z,3.50
2018-12-30T17:57:35.854Z,3.50
2018-12-30T18:00:06.303Z,3.50
2018-12-30T18:02:35.660Z,3.50
2018-12-30T18:05:05.004Z,3.40
2018-12-30T18:07:34.348Z,3.40
2018-12-30T18:10:03.915Z,3.40
2018-12-30T18:12:33.309Z,3.40
2018-12-30T18:15:02.387Z,3.40
2018-12-30T18:17:31.468Z,3.50
2018-12-30T18:20:00.732Z,3.50
2018-12-30T18:22:30.040Z,3.50
2018-12-30T18:24:59.188Z,3.60
2018-12-30T18:27:28.423Z,3.60
2018-12-30T18:29:57.424Z,3.60
2018-12-30T18:32:26.467Z,3.60
2018-12-30T18:34:55.895Z,3.50
2018-12-30T18:37:25.124Z,3.50
2018-12-30T18:39:56.842Z,3.50
2018-12-30T18:42:26.188Z,3.50
2018-12-30T18:44:55.269Z,3.50
2018-12-30T18:47:24.275Z,3.60
2018-12-30T18:49:54.022Z,3.60
2018-12-30T18:52:23.059Z,3.60
2018-12-30T18:54:52.397Z,3.60
2018-12-30T18:57:21.575Z,3.70
2018-12-30T18:59:50.499Z,3.70
2018-12-30T19:02:19.795Z,3.70
2018-12-30T19:04:49.048Z,3.60
2018-12-30T19:07:18.033Z,3.70
2018-12-30T19:09:47.389Z,3.70
2018-12-30T19:12:16.498Z,3.60
2018-12-30T19:14:47.442Z,3.60
2018-12-30T19:17:16.749Z,3.60
2018-12-30T19:19:45.683Z,3.60
2018-12-30T19:22:15.091Z,3.60
2018-12-30T19:24:44.413Z,3.60
2018-12-30T19:27:13.739Z,3.60
2018-12-30T19:29:43.156Z,3.70
2018-12-30T19:32:12.711Z,3.60
2018-12-30T19:34:41.815Z,3.60
2018-12-30T19:37:11.183Z,3.60
2018-12-30T19:39:40.540Z,3.60
2018-12-30T19:42:12.296Z,3.70
2018-12-30T19:44:41.785Z,3.60
2018-12-30T19:47:10.715Z,3.60
2018-12-30T19:49:39.640Z,3.70
2018-12-30T19:52:08.763Z,3.70
2018-12-30T19:54:38.468Z,3.60
2018-12-30T19:57:07.500Z,3.60
2018-12-30T19:59:36.430Z,3.70
2018-12-30T20:02:05.728Z,3.60
2018-12-30T20:04:40.553Z,3.70
2018-12-30T20:07:05.784Z,3.70
2018-12-30T20:09:34.827Z,3.70
2018-12-30T20:12:04.296Z,3.70
2018-12-30T20:14:33.501Z,3.70
2018-12-30T20:17:02.587Z,3.70
2018-12-30T20:19:31.575Z,3.70
2018-12-30T20:22:01.325Z,3.60
2018-12-30T20:24:31.890Z,3.60
2018-12-30T20:27:01.481Z,3.60
2018-12-30T20:29:30.979Z,3.60
2018-12-30T20:32:00.929Z,3.60
2018-12-30T20:34:29.950Z,3.60
2018-12-30T20:36:59.340Z,3.60
2018-12-30T20:39:30.526Z,3.60
2018-12-30T20:41:59.925Z,3.60
2018-12-30T20:44:29.248Z,3.50
2018-12-30T20:46:58.783Z,3.50
2018-12-30T20:49:27.836Z,3.50
2018-12-30T20:51:57.340Z,3.50
2018-12-30T20:54:26.559Z,3.50
2018-12-30T20:56:55.879Z,3.50
2018-12-30T20:59:24.902Z,3.50
2018-12-30T21:01:56.395Z,3.50
2018-12-30T21:04:25.894Z,3.50
2018-12-30T21:06:55.629Z,3.50
2018-12-30T21:09:25.269Z,3.50
2018-12-30T21:11:54.608Z,3.50
2018-12-30T21:14:23.978Z,3.50
2018-12-30T21:16:54.305Z,3.50
2018-12-30T21:19:23.841Z,3.50
2018-12-30T21:21:53.494Z,3.50
2018-12-30T21:24:22.865Z,3.50
2018-12-30T21:26:52.224Z,3.50
2018-12-30T21:29:21.777Z,3.40
2018-12-30T21:31:51.509Z,3.40
2018-12-30T21:34:21.306Z,3.50
2018-12-30T21:36:50.970Z,3.50
2018-12-30T21:39:20.689Z,3.40
2018-12-30T21:41:52.543Z,3.40
2018-12-30T21:44:22.006Z,3.40
2018-12-30T21:46:51.764Z,3.50
2018-12-30T21:49:21.266Z,3.50
2018-12-30T21:51:51.142Z,3.40
2018-12-30T21:54:21.010Z,3.50
2018-12-30T21:56:54.727Z,3.50
2018-12-30T21:59:21.469Z,3.50
2018-12-30T22:01:51.354Z,3.50
2018-12-30T22:04:20.720Z,3.40
2018-12-30T22:06:50.563Z,3.40
2018-12-30T22:09:20.345Z,3.40
2018-12-30T22:11:50.014Z,3.40
2018-12-30T22:14:19.669Z,3.40
2018-12-30T22:16:49.615Z,3.40
2018-12-30T22:19:19.539Z,3.40
2018-12-30T22:21:50.085Z,3.40
2018-12-30T22:24:19.625Z,3.40
2018-12-30T22:26:49.211Z,3.40
2018-12-30T22:29:18.526Z,3.30
2018-12-30T22:31:48.363Z,3.40
2018-12-30T22:34:17.679Z,3.30
2018-12-30T22:36:48.500Z,3.40
2018-12-30T22:39:19.214Z,3.40
2018-12-30T22:41:48.922Z,3.40
2018-12-30T22:44:18.606Z,3.40
2018-12-30T22:46:48.508Z,3.40
2018-12-30T22:49:17.976Z,3.40
2018-12-30T22:51:48.603Z,3.40
2018-12-30T22:54:19.200Z,3.40
2018-12-30T22:56:48.961Z,3.40
2018-12-30T22:59:18.634Z,3.40
2018-12-30T23:01:49.744Z,3.40
2018-12-30T23:04:19.142Z,3.40
2018-12-30T23:06:48.634Z,3.40
2018-12-30T23:09:18.129Z,3.40
2018-12-30T23:11:47.687Z,3.40
2018-12-30T23:14:19.219Z,3.40
2018-12-30T23:16:48.700Z,3.50
2018-12-30T23:19:18.162Z,3.50
2018-12-30T23:21:47.208Z,3.50
2018-12-30T23:24:16.545Z,3.50
2018-12-30T23:26:45.638Z,3.50
2018-12-30T23:29:15.098Z,3.50
2018-12-30T23:31:44.056Z,3.50
2018-12-30T23:34:13.293Z,3.50
2018-12-30T23:36:42.579Z,3.50
2018-12-30T23:39:11.675Z,3.60
2018-12-30T23:41:40.728Z,3.60
2018-12-30T23:44:11.073Z,3.50
2018-12-30T23:46:40.156Z,3.60
2018-12-30T23:49:09.474Z,3.60
2018-12-30T23:51:38.968Z,3.60
2018-12-30T23:54:08.228Z,3.60
2018-12-30T23:56:37.294Z,3.60
2018-12-30T23:59:06.676Z,3.60
